sensor_id;sensor_type;location;lat;lon;timestamp;P1;durP1;ratioP1;P2;durP2;ratioP2
26963;SDS011;14521;48.148;-1.656;2022-11-25T00:02:12;3.35;;;1.42;;
26963;SDS011;14521;48.148;-1.656;2022-11-25T00:05:34;5.28;;;1.50;;
26963;SDS011;14521;48.148;-1.656;2022-11-25T00:08:57;3.42;;;1.23;;
26963;SDS011;14521;48.148;-1.656;2022-11-25T00:12:25;7.30;;;1.77;;
26963;SDS011;14521;48.148;-1.656;2022-11-25T00:15:47;2.92;;;1.50;;
26963;SDS011;14521;48.148;-1.656;2022-11-25T00:19:09;6.28;;;2.00;;
26963;SDS011;14521;48.148;-1.656;2022-11-25T00:22:32;4.78;;;1.60;;
26963;SDS011;14521;48.148;-1.656;2022-11-25T00:25:54;6.28;;;1.65;;
26963;SDS011;14521;48.148;-1.656;2022-11-25T00:29:16;5.22;;;1.67;;
26963;SDS011;14521;48.148;-1.656;2022-11-25T00:32:39;7.55;;;1.92;;
26963;SDS011;14521;48.148;-1.656;2022-11-25T00:36:04;6.35;;;1.80;;
26963;SDS011;14521;48.148;-1.656;2022-11-25T00:39:28;4.03;;;1.27;;
26963;SDS011;14521;48.148;-1.656;2022-11-25T00:42:50;6.43;;;1.80;;
26963;SDS011;14521;48.148;-1.656;2022-11-25T00:46:31;5.75;;;1.17;;
26963;SDS011;14521;48.148;-1.656;2022-11-25T00:49:53;3.70;;;2.13;;
26963;SDS011;14521;48.148;-1.656;2022-11-25T00:53:16;4.28;;;1.40;;
26963;SDS011;14521;48.148;-1.656;2022-11-25T00:56:38;9.40;;;1.80;;
26963;SDS011;14521;48.148;-1.656;2022-11-25T01:00:00;4.05;;;1.25;;
26963;SDS011;14521;48.148;-1.656;2022-11-25T01:03:23;7.18;;;1.50;;
26963;SDS011;14521;48.148;-1.656;2022-11-25T01:06:46;8.32;;;1.70;;
26963;SDS011;14521;48.148;-1.656;2022-11-25T01:10:08;5.40;;;1.58;;
26963;SDS011;14521;48.148;-1.656;2022-11-25T01:13:32;3.78;;;1.58;;
26963;SDS011;14521;48.148;-1.656;2022-11-25T01:16:55;7.35;;;1.40;;
26963;SDS011;14521;48.148;-1.656;2022-11-25T01:20:17;2.85;;;1.42;;
26963;SDS011;14521;48.148;-1.656;2022-11-25T01:23:40;4.18;;;1.67;;
26963;SDS011;14521;48.148;-1.656;2022-11-25T01:27:03;5.97;;;1.45;;
26963;SDS011;14521;48.148;-1.656;2022-11-25T01:30:25;3.97;;;1.02;;
26963;SDS011;14521;48.148;-1.656;2022-11-25T01:33:51;5.53;;;1.65;;
26963;SDS011;14521;48.148;-1.656;2022-11-25T01:37:33;2.80;;;1.02;;
26963;SDS011;14521;48.148;-1.656;2022-11-25T01:40:57;3.75;;;1.40;;
26963;SDS011;14521;48.148;-1.656;2022-11-25T01:44:25;7.57;;;1.60;;
26963;SDS011;14521;48.148;-1.656;2022-11-25T01:47:49;6.53;;;1.50;;
26963;SDS011;14521;48.148;-1.656;2022-11-25T01:55:06;4.35;;;1.63;;
26963;SDS011;14521;48.148;-1.656;2022-11-25T01:58:34;2.92;;;1.40;;
26963;SDS011;14521;48.148;-1.656;2022-11-25T02:01:58;6.28;;;1.63;;
26963;SDS011;14521;48.148;-1.656;2022-11-25T02:05:26;3.22;;;1.48;;
26963;SDS011;14521;48.148;-1.656;2022-11-25T02:09:07;4.57;;;1.23;;
26963;SDS011;14521;48.148;-1.656;2022-11-25T02:12:32;4.55;;;1.67;;
26963;SDS011;14521;48.148;-1.656;2022-11-25T02:15:57;3.35;;;1.27;;
26963;SDS011;14521;48.148;-1.656;2022-11-25T02:19:21;3.83;;;1.27;;
26963;SDS011;14521;48.148;-1.656;2022-11-25T02:23:03;5.10;;;1.60;;
26963;SDS011;14521;48.148;-1.656;2022-11-25T02:26:38;1.98;;;1.17;;
26963;SDS011;14521;48.148;-1.656;2022-11-25T02:30:02;5.35;;;1.27;;
26963;SDS011;14521;48.148;-1.656;2022-11-25T02:33:25;6.30;;;1.48;;
26963;SDS011;14521;48.148;-1.656;2022-11-25T02:36:49;2.92;;;1.08;;
26963;SDS011;14521;48.148;-1.656;2022-11-25T02:40:13;4.50;;;1.10;;
26963;SDS011;14521;48.148;-1.656;2022-11-25T02:43:35;4.25;;;1.55;;
26963;SDS011;14521;48.148;-1.656;2022-11-25T02:46:58;5.00;;;1.30;;
26963;SDS011;14521;48.148;-1.656;2022-11-25T02:50:21;3.17;;;1.25;;
26963;SDS011;14521;48.148;-1.656;2022-11-25T02:53:43;3.55;;;1.20;;
26963;SDS011;14521;48.148;-1.656;2022-11-25T02:57:06;2.30;;;0.85;;
26963;SDS011;14521;48.148;-1.656;2022-11-25T03:00:29;2.92;;;0.85;;
26963;SDS011;14521;48.148;-1.656;2022-11-25T03:03:51;4.57;;;1.42;;
26963;SDS011;14521;48.148;-1.656;2022-11-25T03:07:14;3.55;;;1.30;;
26963;SDS011;14521;48.148;-1.656;2022-11-25T03:10:37;4.05;;;1.45;;
26963;SDS011;14521;48.148;-1.656;2022-11-25T03:14:00;3.55;;;1.30;;
26963;SDS011;14521;48.148;-1.656;2022-11-25T03:17:22;5.18;;;1.17;;
26963;SDS011;14521;48.148;-1.656;2022-11-25T03:20:44;2.17;;;1.05;;
26963;SDS011;14521;48.148;-1.656;2022-11-25T03:24:07;4.47;;;1.10;;
26963;SDS011;14521;48.148;-1.656;2022-11-25T03:27:29;4.20;;;1.20;;
26963;SDS011;14521;48.148;-1.656;2022-11-25T03:30:52;2.35;;;1.17;;
26963;SDS011;14521;48.148;-1.656;2022-11-25T03:34:14;3.38;;;0.90;;
26963;SDS011;14521;48.148;-1.656;2022-11-25T03:37:37;3.65;;;1.23;;
26963;SDS011;14521;48.148;-1.656;2022-11-25T03:41:01;4.93;;;1.30;;
26963;SDS011;14521;48.148;-1.656;2022-11-25T03:44:23;3.70;;;1.30;;
26963;SDS011;14521;48.148;-1.656;2022-11-25T03:47:46;3.70;;;0.98;;
26963;SDS011;14521;48.148;-1.656;2022-11-25T03:51:08;4.82;;;1.17;;
26963;SDS011;14521;48.148;-1.656;2022-11-25T03:54:32;5.40;;;1.30;;
26963;SDS011;14521;48.148;-1.656;2022-11-25T03:58:08;3.53;;;1.38;;
26963;SDS011;14521;48.148;-1.656;2022-11-25T04:01:30;4.47;;;1.40;;
26963;SDS011;14521;48.148;-1.656;2022-11-25T04:04:53;4.63;;;1.45;;
26963;SDS011;14521;48.148;-1.656;2022-11-25T04:08:16;4.55;;;1.30;;
26963;SDS011;14521;48.148;-1.656;2022-11-25T04:11:39;4.97;;;1.77;;
26963;SDS011;14521;48.148;-1.656;2022-11-25T04:15:26;4.93;;;1.20;;
26963;SDS011;14521;48.148;-1.656;2022-11-25T04:18:51;3.25;;;1.17;;
26963;SDS011;14521;48.148;-1.656;2022-11-25T04:22:13;2.83;;;0.95;;
26963;SDS011;14521;48.148;-1.656;2022-11-25T04:25:38;2.53;;;1.10;;
26963;SDS011;14521;48.148;-1.656;2022-11-25T04:29:05;4.35;;;1.23;;
26963;SDS011;14521;48.148;-1.656;2022-11-25T04:32:28;2.20;;;0.98;;
26963;SDS011;14521;48.148;-1.656;2022-11-25T04:35:52;3.80;;;1.17;;
26963;SDS011;14521;48.148;-1.656;2022-11-25T04:39:14;3.40;;;1.52;;
26963;SDS011;14521;48.148;-1.656;2022-11-25T04:42:37;2.97;;;1.13;;
26963;SDS011;14521;48.148;-1.656;2022-11-25T04:46:07;2.55;;;1.00;;
26963;SDS011;14521;48.148;-1.656;2022-11-25T04:49:39;2.65;;;1.40;;
26963;SDS011;14521;48.148;-1.656;2022-11-25T04:53:01;2.33;;;1.10;;
26963;SDS011;14521;48.148;-1.656;2022-11-25T04:56:24;4.32;;;0.93;;
26963;SDS011;14521;48.148;-1.656;2022-11-25T04:59:47;2.67;;;0.85;;
26963;SDS011;14521;48.148;-1.656;2022-11-25T05:03:10;5.28;;;1.20;;
26963;SDS011;14521;48.148;-1.656;2022-11-25T05:06:33;2.92;;;1.05;;
26963;SDS011;14521;48.148;-1.656;2022-11-25T05:09:56;2.53;;;1.05;;
26963;SDS011;14521;48.148;-1.656;2022-11-25T05:13:40;1.58;;;0.90;;
26963;SDS011;14521;48.148;-1.656;2022-11-25T05:17:03;2.25;;;0.90;;
26963;SDS011;14521;48.148;-1.656;2022-11-25T05:23:52;2.28;;;0.70;;
26963;SDS011;14521;48.148;-1.656;2022-11-25T05:27:18;1.30;;;0.70;;
26963;SDS011;14521;48.148;-1.656;2022-11-25T05:30:40;2.40;;;0.90;;
26963;SDS011;14521;48.148;-1.656;2022-11-25T05:34:03;2.65;;;0.88;;
26963;SDS011;14521;48.148;-1.656;2022-11-25T05:37:25;1.88;;;0.82;;
26963;SDS011;14521;48.148;-1.656;2022-11-25T05:41:04;3.17;;;1.00;;
26963;SDS011;14521;48.148;-1.656;2022-11-25T05:44:28;3.67;;;1.13;;
26963;SDS011;14521;48.148;-1.656;2022-11-25T05:47:50;1.13;;;0.68;;
26963;SDS011;14521;48.148;-1.656;2022-11-25T05:51:16;4.13;;;0.85;;
26963;SDS011;14521;48.148;-1.656;2022-11-25T05:54:39;1.50;;;0.50;;
26963;SDS011;14521;48.148;-1.656;2022-11-25T05:58:02;3.08;;;0.90;;
26963;SDS011;14521;48.148;-1.656;2022-11-25T06:01:27;1.67;;;0.80;;
26963;SDS011;14521;48.148;-1.656;2022-11-25T06:04:49;1.63;;;0.77;;
26963;SDS011;14521;48.148;-1.656;2022-11-25T06:08:12;0.98;;;0.75;;
26963;SDS011;14521;48.148;-1.656;2022-11-25T06:11:34;3.58;;;0.85;;
26963;SDS011;14521;48.148;-1.656;2022-11-25T06:14:57;3.55;;;0.90;;
26963;SDS011;14521;48.148;-1.656;2022-11-25T06:18:19;4.07;;;0.90;;
26963;SDS011;14521;48.148;-1.656;2022-11-25T06:21:43;3.35;;;1.13;;
26963;SDS011;14521;48.148;-1.656;2022-11-25T06:25:07;1.25;;;0.65;;
26963;SDS011;14521;48.148;-1.656;2022-11-25T06:28:31;3.25;;;1.00;;
26963;SDS011;14521;48.148;-1.656;2022-11-25T06:31:54;6.88;;;1.08;;
26963;SDS011;14521;48.148;-1.656;2022-11-25T06:35:25;2.95;;;0.85;;
26963;SDS011;14521;48.148;-1.656;2022-11-25T06:38:51;3.25;;;0.60;;
26963;SDS011;14521;48.148;-1.656;2022-11-25T06:42:14;4.13;;;1.30;;
26963;SDS011;14521;48.148;-1.656;2022-11-25T06:45:37;1.55;;;0.90;;
26963;SDS011;14521;48.148;-1.656;2022-11-25T06:48:59;3.30;;;1.00;;
26963;SDS011;14521;48.148;-1.656;2022-11-25T06:52:21;1.90;;;0.75;;
26963;SDS011;14521;48.148;-1.656;2022-11-25T06:55:43;2.75;;;0.80;;
26963;SDS011;14521;48.148;-1.656;2022-11-25T06:59:06;3.75;;;0.75;;
26963;SDS011;14521;48.148;-1.656;2022-11-25T07:02:28;6.80;;;0.88;;
26963;SDS011;14521;48.148;-1.656;2022-11-25T07:05:57;2.95;;;0.80;;
26963;SDS011;14521;48.148;-1.656;2022-11-25T07:09:19;2.75;;;1.10;;
26963;SDS011;14521;48.148;-1.656;2022-11-25T07:12:43;1.92;;;1.00;;
26963;SDS011;14521;48.148;-1.656;2022-11-25T07:16:05;6.28;;;0.80;;
26963;SDS011;14521;48.148;-1.656;2022-11-25T07:19:28;4.32;;;0.80;;
26963;SDS011;14521;48.148;-1.656;2022-11-25T07:26:17;4.53;;;1.15;;
26963;SDS011;14521;48.148;-1.656;2022-11-25T07:29:43;3.30;;;0.80;;
26963;SDS011;14521;48.148;-1.656;2022-11-25T07:33:26;2.55;;;0.90;;
26963;SDS011;14521;48.148;-1.656;2022-11-25T07:36:48;6.80;;;1.13;;
26963;SDS011;14521;48.148;-1.656;2022-11-25T07:40:11;3.88;;;1.33;;
26963;SDS011;14521;48.148;-1.656;2022-11-25T07:43:34;5.88;;;1.35;;
26963;SDS011;14521;48.148;-1.656;2022-11-25T07:46:56;6.53;;;1.00;;
26963;SDS011;14521;48.148;-1.656;2022-11-25T07:50:18;4.85;;;1.38;;
26963;SDS011;14521;48.148;-1.656;2022-11-25T07:53:42;2.65;;;0.98;;
26963;SDS011;14521;48.148;-1.656;2022-11-25T07:57:04;2.50;;;1.52;;
26963;SDS011;14521;48.148;-1.656;2022-11-25T08:00:27;3.58;;;1.23;;
26963;SDS011;14521;48.148;-1.656;2022-11-25T08:03:49;1.95;;;0.90;;
26963;SDS011;14521;48.148;-1.656;2022-11-25T08:07:12;3.88;;;1.08;;
26963;SDS011;14521;48.148;-1.656;2022-11-25T08:10:34;3.72;;;0.90;;
26963;SDS011;14521;48.148;-1.656;2022-11-25T08:14:01;2.05;;;0.95;;
26963;SDS011;14521;48.148;-1.656;2022-11-25T08:17:23;5.18;;;1.48;;
26963;SDS011;14521;48.148;-1.656;2022-11-25T08:20:45;3.67;;;1.23;;
26963;SDS011;14521;48.148;-1.656;2022-11-25T08:24:12;4.25;;;1.23;;
26963;SDS011;14521;48.148;-1.656;2022-11-25T08:27:36;3.15;;;1.10;;
26963;SDS011;14521;48.148;-1.656;2022-11-25T08:31:03;3.53;;;1.05;;
26963;SDS011;14521;48.148;-1.656;2022-11-25T08:34:26;4.03;;;0.98;;
26963;SDS011;14521;48.148;-1.656;2022-11-25T08:37:54;2.55;;;1.20;;
26963;SDS011;14521;48.148;-1.656;2022-11-25T08:41:21;3.33;;;1.08;;
26963;SDS011;14521;48.148;-1.656;2022-11-25T08:44:52;5.57;;;0.90;;
26963;SDS011;14521;48.148;-1.656;2022-11-25T08:48:16;5.13;;;1.23;;
26963;SDS011;14521;48.148;-1.656;2022-11-25T08:51:40;3.05;;;1.15;;
26963;SDS011;14521;48.148;-1.656;2022-11-25T08:55:03;5.38;;;1.10;;
26963;SDS011;14521;48.148;-1.656;2022-11-25T08:58:26;4.30;;;1.02;;
26963;SDS011;14521;48.148;-1.656;2022-11-25T09:01:48;4.88;;;1.27;;
26963;SDS011;14521;48.148;-1.656;2022-11-25T09:05:11;2.60;;;1.00;;
26963;SDS011;14521;48.148;-1.656;2022-11-25T09:08:35;2.50;;;1.17;;
26963;SDS011;14521;48.148;-1.656;2022-11-25T09:11:59;2.83;;;1.00;;
26963;SDS011;14521;48.148;-1.656;2022-11-25T09:15:21;3.00;;;1.33;;
26963;SDS011;14521;48.148;-1.656;2022-11-25T09:18:43;3.97;;;1.20;;
26963;SDS011;14521;48.148;-1.656;2022-11-25T09:22:06;2.72;;;1.02;;
26963;SDS011;14521;48.148;-1.656;2022-11-25T09:25:28;2.70;;;0.98;;
26963;SDS011;14521;48.148;-1.656;2022-11-25T09:28:51;2.20;;;1.00;;
26963;SDS011;14521;48.148;-1.656;2022-11-25T09:32:13;2.33;;;1.08;;
26963;SDS011;14521;48.148;-1.656;2022-11-25T09:35:36;4.00;;;0.80;;
26963;SDS011;14521;48.148;-1.656;2022-11-25T09:38:58;4.68;;;1.15;;
26963;SDS011;14521;48.148;-1.656;2022-11-25T09:42:42;6.32;;;1.27;;
26963;SDS011;14521;48.148;-1.656;2022-11-25T09:53:57;2.63;;;1.25;;
26963;SDS011;14521;48.148;-1.656;2022-11-25T10:01:06;1.98;;;1.13;;
26963;SDS011;14521;48.148;-1.656;2022-11-25T10:04:41;3.58;;;1.30;;
26963;SDS011;14521;48.148;-1.656;2022-11-25T10:08:11;2.55;;;1.23;;
26963;SDS011;14521;48.148;-1.656;2022-11-25T10:15:11;3.75;;;1.15;;
26963;SDS011;14521;48.148;-1.656;2022-11-25T10:18:41;3.55;;;0.73;;
26963;SDS011;14521;48.148;-1.656;2022-11-25T10:26:11;4.13;;;0.85;;
26963;SDS011;14521;48.148;-1.656;2022-11-25T10:29:36;2.13;;;0.85;;
26963;SDS011;14521;48.148;-1.656;2022-11-25T10:33:18;3.70;;;1.10;;
26963;SDS011;14521;48.148;-1.656;2022-11-25T10:37:00;3.13;;;1.00;;
26963;SDS011;14521;48.148;-1.656;2022-11-25T10:40:25;2.53;;;1.13;;
26963;SDS011;14521;48.148;-1.656;2022-11-25T10:43:47;5.50;;;1.00;;
26963;SDS011;14521;48.148;-1.656;2022-11-25T10:47:30;4.88;;;1.30;;
26963;SDS011;14521;48.148;-1.656;2022-11-25T10:57:48;5.32;;;1.00;;
26963;SDS011;14521;48.148;-1.656;2022-11-25T11:08:25;2.88;;;0.90;;
26963;SDS011;14521;48.148;-1.656;2022-11-25T11:11:49;5.22;;;1.17;;
26963;SDS011;14521;48.148;-1.656;2022-11-25T11:15:19;2.50;;;0.80;;
26963;SDS011;14521;48.148;-1.656;2022-11-25T11:18:43;1.92;;;0.95;;
26963;SDS011;14521;48.148;-1.656;2022-11-25T11:22:15;2.88;;;1.08;;
26963;SDS011;14521;48.148;-1.656;2022-11-25T11:25:39;2.00;;;0.98;;
26963;SDS011;14521;48.148;-1.656;2022-11-25T11:29:04;6.90;;;1.30;;
26963;SDS011;14521;48.148;-1.656;2022-11-25T11:32:35;2.22;;;1.00;;
26963;SDS011;14521;48.148;-1.656;2022-11-25T11:36:06;3.78;;;1.25;;
26963;SDS011;14521;48.148;-1.656;2022-11-25T11:50:38;3.58;;;1.17;;
26963;SDS011;14521;48.148;-1.656;2022-11-25T11:54:08;3.47;;;1.35;;
26963;SDS011;14521;48.148;-1.656;2022-11-25T11:57:57;5.43;;;1.25;;
26963;SDS011;14521;48.148;-1.656;2022-11-25T12:05:20;2.28;;;0.80;;
26963;SDS011;14521;48.148;-1.656;2022-11-25T12:08:54;2.72;;;1.08;;
26963;SDS011;14521;48.148;-1.656;2022-11-25T12:16:35;7.32;;;1.40;;
26963;SDS011;14521;48.148;-1.656;2022-11-25T12:27:44;6.10;;;1.25;;
26963;SDS011;14521;48.148;-1.656;2022-11-25T12:31:33;10.13;;;1.52;;
26963;SDS011;14521;48.148;-1.656;2022-11-25T12:42:39;15.20;;;2.13;;
26963;SDS011;14521;48.148;-1.656;2022-11-25T12:49:50;11.35;;;1.50;;
26963;SDS011;14521;48.148;-1.656;2022-11-25T13:00:48;11.48;;;1.42;;
26963;SDS011;14521;48.148;-1.656;2022-11-25T13:04:41;7.20;;;1.40;;
26963;SDS011;14521;48.148;-1.656;2022-11-25T13:16:07;4.07;;;1.38;;
26963;SDS011;14521;48.148;-1.656;2022-11-25T13:19:31;6.22;;;1.50;;
26963;SDS011;14521;48.148;-1.656;2022-11-25T13:29:52;6.43;;;1.42;;
26963;SDS011;14521;48.148;-1.656;2022-11-25T13:36:44;5.38;;;1.33;;
26963;SDS011;14521;48.148;-1.656;2022-11-25T13:40:20;3.13;;;1.48;;
26963;SDS011;14521;48.148;-1.656;2022-11-25T13:47:42;5.15;;;1.27;;
26963;SDS011;14521;48.148;-1.656;2022-11-25T13:51:19;3.25;;;1.25;;
26963;SDS011;14521;48.148;-1.656;2022-11-25T13:54:44;3.00;;;1.35;;
26963;SDS011;14521;48.148;-1.656;2022-11-25T14:01:33;4.40;;;1.25;;
26963;SDS011;14521;48.148;-1.656;2022-11-25T14:04:59;3.10;;;1.50;;
26963;SDS011;14521;48.148;-1.656;2022-11-25T14:08:41;2.83;;;1.50;;
26963;SDS011;14521;48.148;-1.656;2022-11-25T14:16:04;3.72;;;1.05;;
26963;SDS011;14521;48.148;-1.656;2022-11-25T14:19:43;7.00;;;1.55;;
26963;SDS011;14521;48.148;-1.656;2022-11-25T14:27:13;5.82;;;1.63;;
26963;SDS011;14521;48.148;-1.656;2022-11-25T14:31:03;3.85;;;1.30;;
26963;SDS011;14521;48.148;-1.656;2022-11-25T14:34:36;4.65;;;1.13;;
26963;SDS011;14521;48.148;-1.656;2022-11-25T14:41:37;3.45;;;1.13;;
26963;SDS011;14521;48.148;-1.656;2022-11-25T14:45:18;2.97;;;1.13;;
26963;SDS011;14521;48.148;-1.656;2022-11-25T14:48:53;4.72;;;1.25;;
26963;SDS011;14521;48.148;-1.656;2022-11-25T14:52:18;2.97;;;1.10;;
26963;SDS011;14521;48.148;-1.656;2022-11-25T14:55:49;4.05;;;1.20;;
26963;SDS011;14521;48.148;-1.656;2022-11-25T14:59:12;3.42;;;1.00;;
26963;SDS011;14521;48.148;-1.656;2022-11-25T15:02:37;3.33;;;1.08;;
26963;SDS011;14521;48.148;-1.656;2022-11-25T15:06:03;4.05;;;1.15;;
26963;SDS011;14521;48.148;-1.656;2022-11-25T15:09:44;4.53;;;1.08;;
26963;SDS011;14521;48.148;-1.656;2022-11-25T15:13:11;1.95;;;1.13;;
26963;SDS011;14521;48.148;-1.656;2022-11-25T15:16:51;1.98;;;1.10;;
26963;SDS011;14521;48.148;-1.656;2022-11-25T15:20:14;6.53;;;1.10;;
26963;SDS011;14521;48.148;-1.656;2022-11-25T15:23:40;3.60;;;1.10;;
26963;SDS011;14521;48.148;-1.656;2022-11-25T15:27:02;2.60;;;0.98;;
26963;SDS011;14521;48.148;-1.656;2022-11-25T15:30:25;1.90;;;1.08;;
26963;SDS011;14521;48.148;-1.656;2022-11-25T15:37:15;3.88;;;1.30;;
26963;SDS011;14521;48.148;-1.656;2022-11-25T15:40:39;2.15;;;0.90;;
26963;SDS011;14521;48.148;-1.656;2022-11-25T15:44:03;5.30;;;1.17;;
26963;SDS011;14521;48.148;-1.656;2022-11-25T15:47:27;2.58;;;1.33;;
26963;SDS011;14521;48.148;-1.656;2022-11-25T15:51:00;3.50;;;1.55;;
26963;SDS011;14521;48.148;-1.656;2022-11-25T15:54:29;2.60;;;1.13;;
26963;SDS011;14521;48.148;-1.656;2022-11-25T15:57:53;2.13;;;0.77;;
26963;SDS011;14521;48.148;-1.656;2022-11-25T16:01:20;5.47;;;0.90;;
26963;SDS011;14521;48.148;-1.656;2022-11-25T16:04:44;1.77;;;0.90;;
26963;SDS011;14521;48.148;-1.656;2022-11-25T16:11:50;2.35;;;1.00;;
26963;SDS011;14521;48.148;-1.656;2022-11-25T16:15:15;4.47;;;1.00;;
26963;SDS011;14521;48.148;-1.656;2022-11-25T16:22:21;3.50;;;1.00;;
26963;SDS011;14521;48.148;-1.656;2022-11-25T16:25:48;2.30;;;0.80;;
26963;SDS011;14521;48.148;-1.656;2022-11-25T16:32:50;2.10;;;1.00;;
26963;SDS011;14521;48.148;-1.656;2022-11-25T16:36:13;2.55;;;1.10;;
26963;SDS011;14521;48.148;-1.656;2022-11-25T16:39:35;3.75;;;1.10;;
26963;SDS011;14521;48.148;-1.656;2022-11-25T16:42:59;2.47;;;1.10;;
26963;SDS011;14521;48.148;-1.656;2022-11-25T16:46:22;3.15;;;1.13;;
26963;SDS011;14521;48.148;-1.656;2022-11-25T16:49:44;2.70;;;1.08;;
26963;SDS011;14521;48.148;-1.656;2022-11-25T16:53:07;3.38;;;1.02;;
26963;SDS011;14521;48.148;-1.656;2022-11-25T16:56:29;3.03;;;1.02;;
26963;SDS011;14521;48.148;-1.656;2022-11-25T16:59:52;2.90;;;1.15;;
26963;SDS011;14521;48.148;-1.656;2022-11-25T17:03:19;4.10;;;1.50;;
26963;SDS011;14521;48.148;-1.656;2022-11-25T17:06:42;3.78;;;1.23;;
26963;SDS011;14521;48.148;-1.656;2022-11-25T17:10:25;3.90;;;1.50;;
26963;SDS011;14521;48.148;-1.656;2022-11-25T17:13:48;5.63;;;1.88;;
26963;SDS011;14521;48.148;-1.656;2022-11-25T17:17:13;1.88;;;1.33;;
26963;SDS011;14521;48.148;-1.656;2022-11-25T17:20:46;3.58;;;1.35;;
26963;SDS011;14521;48.148;-1.656;2022-11-25T17:24:16;4.43;;;1.42;;
26963;SDS011;14521;48.148;-1.656;2022-11-25T17:27:41;1.50;;;1.20;;
26963;SDS011;14521;48.148;-1.656;2022-11-25T17:31:07;8.82;;;1.42;;
26963;SDS011;14521;48.148;-1.656;2022-11-25T17:34:30;3.80;;;1.38;;
26963;SDS011;14521;48.148;-1.656;2022-11-25T17:38:00;1.90;;;1.15;;
26963;SDS011;14521;48.148;-1.656;2022-11-25T17:41:23;3.35;;;1.10;;
26963;SDS011;14521;48.148;-1.656;2022-11-25T17:44:48;4.03;;;1.55;;
26963;SDS011;14521;48.148;-1.656;2022-11-25T17:48:15;6.35;;;1.80;;
26963;SDS011;14521;48.148;-1.656;2022-11-25T17:51:38;7.03;;;2.10;;
26963;SDS011;14521;48.148;-1.656;2022-11-25T17:55:00;4.10;;;1.90;;
26963;SDS011;14521;48.148;-1.656;2022-11-25T17:58:22;2.72;;;1.88;;
26963;SDS011;14521;48.148;-1.656;2022-11-25T18:01:45;4.93;;;2.30;;
26963;SDS011;14521;48.148;-1.656;2022-11-25T18:05:14;4.55;;;2.33;;
26963;SDS011;14521;48.148;-1.656;2022-11-25T18:08:44;3.42;;;1.73;;
26963;SDS011;14521;48.148;-1.656;2022-11-25T18:12:08;5.13;;;2.47;;
26963;SDS011;14521;48.148;-1.656;2022-11-25T18:15:45;5.65;;;2.30;;
26963;SDS011;14521;48.148;-1.656;2022-11-25T18:19:10;3.85;;;2.53;;
26963;SDS011;14521;48.148;-1.656;2022-11-25T18:22:33;3.80;;;2.38;;
26963;SDS011;14521;48.148;-1.656;2022-11-25T18:25:56;6.25;;;2.47;;
26963;SDS011;14521;48.148;-1.656;2022-11-25T18:29:24;5.22;;;2.85;;
26963;SDS011;14521;48.148;-1.656;2022-11-25T18:32:47;8.57;;;3.00;;
26963;SDS011;14521;48.148;-1.656;2022-11-25T18:36:11;5.07;;;2.63;;
26963;SDS011;14521;48.148;-1.656;2022-11-25T18:39:34;6.97;;;3.28;;
26963;SDS011;14521;48.148;-1.656;2022-11-25T18:42:58;3.63;;;3.20;;
26963;SDS011;14521;48.148;-1.656;2022-11-25T18:49:44;5.18;;;2.97;;
26963;SDS011;14521;48.148;-1.656;2022-11-25T18:53:09;7.38;;;3.25;;
26963;SDS011;14521;48.148;-1.656;2022-11-25T18:56:31;6.75;;;3.40;;
26963;SDS011;14521;48.148;-1.656;2022-11-25T18:59:54;5.82;;;3.10;;
26963;SDS011;14521;48.148;-1.656;2022-11-25T19:03:36;3.95;;;3.20;;
26963;SDS011;14521;48.148;-1.656;2022-11-25T19:06:59;4.30;;;3.05;;
26963;SDS011;14521;48.148;-1.656;2022-11-25T19:10:23;3.42;;;2.83;;
26963;SDS011;14521;48.148;-1.656;2022-11-25T19:13:47;4.72;;;3.03;;
26963;SDS011;14521;48.148;-1.656;2022-11-25T19:17:16;5.05;;;2.95;;
26963;SDS011;14521;48.148;-1.656;2022-11-25T19:20:41;7.13;;;3.72;;
26963;SDS011;14521;48.148;-1.656;2022-11-25T19:24:05;5.18;;;2.97;;
26963;SDS011;14521;48.148;-1.656;2022-11-25T19:27:41;5.50;;;3.47;;
26963;SDS011;14521;48.148;-1.656;2022-11-25T19:31:07;6.15;;;3.13;;
26963;SDS011;14521;48.148;-1.656;2022-11-25T19:34:32;4.32;;;3.40;;
26963;SDS011;14521;48.148;-1.656;2022-11-25T19:37:59;6.65;;;3.40;;
26963;SDS011;14521;48.148;-1.656;2022-11-25T19:41:21;3.72;;;3.13;;
26963;SDS011;14521;48.148;-1.656;2022-11-25T19:44:44;5.85;;;3.30;;
26963;SDS011;14521;48.148;-1.656;2022-11-25T19:48:10;6.35;;;2.72;;
26963;SDS011;14521;48.148;-1.656;2022-11-25T19:51:35;5.47;;;3.72;;
26963;SDS011;14521;48.148;-1.656;2022-11-25T19:54:58;4.35;;;3.20;;
26963;SDS011;14521;48.148;-1.656;2022-11-25T19:58:20;6.00;;;3.58;;
26963;SDS011;14521;48.148;-1.656;2022-11-25T20:01:46;3.75;;;3.30;;
26963;SDS011;14521;48.148;-1.656;2022-11-25T20:05:09;6.30;;;4.18;;
26963;SDS011;14521;48.148;-1.656;2022-11-25T20:08:36;8.73;;;3.75;;
26963;SDS011;14521;48.148;-1.656;2022-11-25T20:11:58;5.00;;;3.38;;
26963;SDS011;14521;48.148;-1.656;2022-11-25T20:15:31;5.15;;;3.50;;
26963;SDS011;14521;48.148;-1.656;2022-11-25T20:18:53;5.20;;;3.25;;
26963;SDS011;14521;48.148;-1.656;2022-11-25T20:22:20;4.47;;;3.60;;
26963;SDS011;14521;48.148;-1.656;2022-11-25T20:25:47;6.88;;;3.83;;
26963;SDS011;14521;48.148;-1.656;2022-11-25T20:29:18;4.38;;;3.40;;
26963;SDS011;14521;48.148;-1.656;2022-11-25T20:32:48;6.25;;;3.55;;
26963;SDS011;14521;48.148;-1.656;2022-11-25T20:36:11;7.40;;;3.70;;
26963;SDS011;14521;48.148;-1.656;2022-11-25T20:39:39;4.25;;;3.80;;
26963;SDS011;14521;48.148;-1.656;2022-11-25T20:43:02;6.32;;;3.58;;
26963;SDS011;14521;48.148;-1.656;2022-11-25T20:46:26;5.82;;;3.35;;
26963;SDS011;14521;48.148;-1.656;2022-11-25T20:49:52;3.97;;;3.55;;
26963;SDS011;14521;48.148;-1.656;2022-11-25T20:53:15;6.10;;;3.47;;
26963;SDS011;14521;48.148;-1.656;2022-11-25T20:56:39;8.43;;;3.67;;
26963;SDS011;14521;48.148;-1.656;2022-11-25T21:00:05;4.28;;;3.60;;
26963;SDS011;14521;48.148;-1.656;2022-11-25T21:03:47;3.93;;;3.23;;
26963;SDS011;14521;48.148;-1.656;2022-11-25T21:07:13;7.97;;;3.30;;
26963;SDS011;14521;48.148;-1.656;2022-11-25T21:10:36;4.35;;;3.78;;
26963;SDS011;14521;48.148;-1.656;2022-11-25T21:13:58;5.97;;;3.85;;
26963;SDS011;14521;48.148;-1.656;2022-11-25T21:17:21;6.90;;;3.65;;
26963;SDS011;14521;48.148;-1.656;2022-11-25T21:20:43;5.20;;;3.30;;
26963;SDS011;14521;48.148;-1.656;2022-11-25T21:24:27;5.88;;;4.05;;
26963;SDS011;14521;48.148;-1.656;2022-11-25T21:27:52;6.05;;;3.72;;
26963;SDS011;14521;48.148;-1.656;2022-11-25T21:31:15;4.97;;;3.72;;
26963;SDS011;14521;48.148;-1.656;2022-11-25T21:34:39;4.68;;;3.75;;
26963;SDS011;14521;48.148;-1.656;2022-11-25T21:38:06;5.07;;;3.13;;
26963;SDS011;14521;48.148;-1.656;2022-11-25T21:41:38;5.50;;;3.80;;
26963;SDS011;14521;48.148;-1.656;2022-11-25T21:45:00;5.18;;;3.65;;
26963;SDS011;14521;48.148;-1.656;2022-11-25T21:48:23;5.82;;;3.80;;
26963;SDS011;14521;48.148;-1.656;2022-11-25T21:51:47;5.63;;;3.60;;
26963;SDS011;14521;48.148;-1.656;2022-11-25T21:55:13;4.95;;;3.58;;
26963;SDS011;14521;48.148;-1.656;2022-11-25T21:58:36;5.97;;;3.38;;
26963;SDS011;14521;48.148;-1.656;2022-11-25T22:01:59;5.35;;;3.58;;
26963;SDS011;14521;48.148;-1.656;2022-11-25T22:05:21;4.18;;;3.53;;
26963;SDS011;14521;48.148;-1.656;2022-11-25T22:08:46;5.63;;;3.58;;
26963;SDS011;14521;48.148;-1.656;2022-11-25T22:12:16;7.00;;;3.55;;
26963;SDS011;14521;48.148;-1.656;2022-11-25T22:15:44;5.82;;;3.65;;
26963;SDS011;14521;48.148;-1.656;2022-11-25T22:19:08;5.47;;;3.67;;
26963;SDS011;14521;48.148;-1.656;2022-11-25T22:22:40;4.55;;;3.40;;
26963;SDS011;14521;48.148;-1.656;2022-11-25T22:26:03;4.65;;;3.20;;
26963;SDS011;14521;48.148;-1.656;2022-11-25T22:29:28;3.38;;;3.03;;
26963;SDS011;14521;48.148;-1.656;2022-11-25T22:32:57;5.80;;;3.65;;
26963;SDS011;14521;48.148;-1.656;2022-11-25T22:36:30;4.70;;;3.25;;
26963;SDS011;14521;48.148;-1.656;2022-11-25T22:39:57;4.50;;;3.28;;
26963;SDS011;14521;48.148;-1.656;2022-11-25T22:43:24;6.88;;;3.67;;
26963;SDS011;14521;48.148;-1.656;2022-11-25T22:46:49;4.93;;;3.78;;